Jeju International Airport
RKPC : now visible

Airfield :











YOU CAN JOIN US ON...

 
LOGIN :

Register | Disclaimer

   EN    FR    IT 

 









Legend :    VFR   Marginal VFR   IFR   Intensive IFR   Very Intensive IFR
Visi :
Ceiling :
>= 8 km
>= 3000ft
5 to 8 km
1000 to 3000 ft
1500m to 5 km
500 to 1000 ft
800 to 1500m
200 to 500 ft
< 800m
< 200 ft
Symbols :   Thunderstorms  Fog  Heavy snow  Heavy precipitations  Wind > 20 kt






- Airport Elevation : 118 ft
- IATA code : CJU


RKPC - Jeju International

CURRENT METAR :
  • 190600Z 33005KT 280V040 9999 SCT025 21/15 Q1020 NOSIG

EXPIRED METARs :
  • 190500Z 33004KT 9999 SCT025 21/15 Q1020 NOSIG
  • 190400Z 35004KT 310V050 9999 FEW025 21/15 Q1020 NOSIG

TAF TAF RKPC
Valid from the 19 at 06:00 until the 20 at 12:00 UTC


190500Z 1906/2012 36007KT 9999 SCT030 TN16/1920Z TX22/2005Z
BECMG 1914/1915 17005KT
BECMG 1923/1924 03007KT
BECMG 2008/2009 12008KT



MET'MAP, your aeronautical weather chart ! - Copyright ORBIFLY December 2007 - Disclaimer

ORBIFLY MET'MAP TEAM :

Programming & Development : Alexandra Zaïnal
Concept & Development : Baudouin d'Aumeries
Co-Development & Prog : Marc-Olivier Méhu
Technical & hardware support : Manuel Goepfert

Contact : metmap@orbifly.com




SOURCES & CREDITS :

   NOAA       Earth
Advisory